Time;durP1;ratioP1;P1;durP2;ratioP2;P2;SDS_P1;SDS_P2;PMS_P1;PMS_P2;Temp;Humidity;BMP_temperature;BMP_pressure;BME280_temperature;BME280_humidity;BME280_pressure;Samples;Min_cycle;Max_cycle;Signal;HPM_P1;HPM_P2
2022/06/14 00:14:27;;;;;;;5.97;1.60;;;;;;;;;;5097075;22;20086;-93
2022/06/14 00:16:55;;;;;;;6.57;1.95;;;;;;;;;;5024929;28;20062;-95
2022/06/14 00:22:15;;;;;;;7.43;1.70;;;;;;;;;;5041544;28;20053;-95
2022/06/14 00:25:08;;;;;;;6.82;1.77;;;;;;;;;;5045333;28;20055;-94
2022/06/14 00:27:41;;;;;;;4.65;1.42;;;;;;;;;;5042096;28;20572;-93
2022/06/14 00:30:09;;;;;;;6.85;1.85;;;;;;;;;;5025203;28;20052;-93
2022/06/14 00:32:37;;;;;;;5.70;1.40;;;;;;;;;;5025312;28;20136;-94
2022/06/14 00:35:05;;;;;;;10.40;1.90;;;;;;;;;;5025361;28;20071;-93
2022/06/14 00:37:33;;;;;;;4.05;1.70;;;;;;;;;;5024784;28;20143;-93
2022/06/14 00:40:07;;;;;;;6.65;2.40;;;;;;;;;;5041458;28;20052;-94
2022/06/14 00:42:35;;;;;;;5.30;1.60;;;;;;;;;;5041591;28;20058;-94
2022/06/14 00:45:27;;;;;;;4.10;1.50;;;;;;;;;;5041271;28;20041;-94
2022/06/14 00:48:14;;;;;;;3.65;1.40;;;;;;;;;;5034821;28;20505;-95
2022/06/14 00:51:03;;;;;;;7.60;1.50;;;;;;;;;;5019159;28;20557;-94
2022/06/14 00:53:50;;;;;;;7.80;1.52;;;;;;;;;;5035341;28;20519;-93
2022/06/14 00:56:33;;;;;;;10.90;1.83;;;;;;;;;;5041204;28;20505;-94
2022/06/14 00:59:17;;;;;;;9.18;2.05;;;;;;;;;;5025224;28;20370;-95
2022/06/14 01:01:46;;;;;;;6.32;1.65;;;;;;;;;;5049244;28;20448;-95
2022/06/14 01:04:27;;;;;;;7.63;1.75;;;;;;;;;;5050630;28;20048;-94
2022/06/14 01:07:05;;;;;;;5.60;1.60;;;;;;;;;;5037258;28;20053;-95
2022/06/14 01:10:03;;;;;;;5.00;1.65;;;;;;;;;;5044468;28;20036;-95
2022/06/14 01:12:43;;;;;;;5.95;1.40;;;;;;;;;;5038884;28;20448;-94
2022/06/14 01:15:20;;;;;;;3.83;1.67;;;;;;;;;;5041000;28;20401;-94
2022/06/14 01:18:09;;;;;;;7.18;1.40;;;;;;;;;;5032586;28;20091;-95
2022/06/14 01:20:46;;;;;;;8.50;2.10;;;;;;;;;;5026279;28;20040;-94
2022/06/14 01:23:21;;;;;;;6.65;1.60;;;;;;;;;;5041095;28;20044;-95
2022/06/14 01:26:12;;;;;;;12.55;2.00;;;;;;;;;;5061298;28;20542;-93
2022/06/14 01:28:42;;;;;;;9.05;1.50;;;;;;;;;;5043605;28;20535;-93
2022/06/14 01:31:35;;;;;;;18.05;1.75;;;;;;;;;;5047781;28;20041;-93
2022/06/14 01:34:08;;;;;;;5.15;1.40;;;;;;;;;;5044990;28;20067;-93
2022/06/14 01:36:38;;;;;;;8.50;1.33;;;;;;;;;;5044020;28;20059;-93
2022/06/14 01:39:13;;;;;;;11.13;1.60;;;;;;;;;;5043659;28;20131;-93
2022/06/14 01:42:07;;;;;;;8.05;1.98;;;;;;;;;;5061591;28;20511;-93
2022/06/14 01:45:02;;;;;;;8.23;1.70;;;;;;;;;;5044477;28;20071;-94
2022/06/14 01:47:51;;;;;;;4.75;1.35;;;;;;;;;;5041108;28;20675;-94
2022/06/14 01:53:53;;;;;;;9.63;1.88;;;;;;;;;;5041019;28;20048;-93
2022/06/14 01:56:50;;;;;;;5.38;1.58;;;;;;;;;;5028319;28;20049;-95
2022/06/14 01:59:34;;;;;;;11.25;1.73;;;;;;;;;;4965819;28;20054;-95
2022/06/14 02:02:13;;;;;;;6.57;1.52;;;;;;;;;;4991332;28;20158;-95
2022/06/14 02:05:03;;;;;;;7.40;1.67;;;;;;;;;;4981143;28;20145;-94
2022/06/14 02:08:09;;;;;;;9.50;1.75;;;;;;;;;;4986075;28;20407;-94
2022/06/14 02:10:47;;;;;;;7.15;1.73;;;;;;;;;;4938366;29;20083;-95
2022/06/14 02:13:28;;;;;;;8.57;1.90;;;;;;;;;;4958045;29;20085;-95
2022/06/14 02:16:06;;;;;;;8.88;2.25;;;;;;;;;;4926732;29;20126;-95
2022/06/14 02:19:12;;;;;;;7.75;1.60;;;;;;;;;;4935292;29;20054;-95
2022/06/14 02:21:44;;;;;;;6.28;1.80;;;;;;;;;;4940535;29;20051;-95
2022/06/14 02:24:41;;;;;;;7.28;1.45;;;;;;;;;;4929146;29;20043;-94
2022/06/14 02:27:48;;;;;;;9.38;1.65;;;;;;;;;;4945397;29;20046;-94
2022/06/14 02:30:27;;;;;;;4.38;1.40;;;;;;;;;;4941899;29;20055;-94
2022/06/14 02:33:09;;;;;;;7.20;1.50;;;;;;;;;;4942376;29;20508;-94
2022/06/14 02:35:50;;;;;;;4.65;1.48;;;;;;;;;;4943254;28;20448;-94
2022/06/14 02:38:43;;;;;;;6.25;1.85;;;;;;;;;;5019572;28;20056;-93
2022/06/14 02:41:27;;;;;;;6.13;1.40;;;;;;;;;;5035585;28;20049;-94
2022/06/14 02:44:15;;;;;;;6.30;1.65;;;;;;;;;;5035725;28;20441;-93
2022/06/14 02:46:53;;;;;;;6.25;1.25;;;;;;;;;;5030955;28;20064;-93
2022/06/14 02:49:37;;;;;;;7.90;1.65;;;;;;;;;;4988074;28;20046;-93
2022/06/14 02:52:10;;;;;;;5.68;1.35;;;;;;;;;;5003845;28;20125;-94
2022/06/14 02:54:51;;;;;;;6.35;1.40;;;;;;;;;;4987353;28;20064;-94
2022/06/14 02:57:33;;;;;;;6.88;1.70;;;;;;;;;;5019388;28;20052;-94
2022/06/14 03:00:54;;;;;;;8.38;1.67;;;;;;;;;;5006660;28;20037;-94
2022/06/14 03:04:05;;;;;;;7.35;1.73;;;;;;;;;;5003007;28;20136;-93
2022/06/14 03:06:48;;;;;;;7.93;1.92;;;;;;;;;;5003189;28;20054;-94
2022/06/14 03:09:20;;;;;;;7.82;1.95;;;;;;;;;;4986625;28;20132;-94
2022/06/14 03:12:14;;;;;;;6.25;1.67;;;;;;;;;;5003513;28;20079;-94
2022/06/14 03:15:03;;;;;;;5.28;1.50;;;;;;;;;;5006921;28;20057;-94
2022/06/14 03:18:05;;;;;;;10.18;1.30;;;;;;;;;;5022834;28;20053;-94
2022/06/14 03:20:45;;;;;;;4.40;1.30;;;;;;;;;;5023010;28;20056;-94
2022/06/14 03:23:43;;;;;;;4.85;1.35;;;;;;;;;;5056210;28;20072;-94
2022/06/14 03:26:58;;;;;;;6.38;1.60;;;;;;;;;;5035278;28;20123;-95
2022/06/14 03:29:34;;;;;;;6.47;1.45;;;;;;;;;;5042062;28;20056;-96
2022/06/14 03:32:24;;;;;;;6.20;1.67;;;;;;;;;;5042228;28;20053;-94
2022/06/14 03:34:55;;;;;;;6.82;1.80;;;;;;;;;;5025752;28;20048;-94
2022/06/14 03:37:23;;;;;;;7.85;1.75;;;;;;;;;;5017066;28;20056;-95
2022/06/14 03:40:03;;;;;;;6.15;1.75;;;;;;;;;;5042202;28;20076;-94
2022/06/14 03:42:35;;;;;;;4.22;1.25;;;;;;;;;;5046941;28;20045;-95
2022/06/14 03:45:05;;;;;;;9.60;1.60;;;;;;;;;;5059083;28;20047;-93
2022/06/14 03:47:57;;;;;;;6.38;1.50;;;;;;;;;;5058707;28;20048;-93
2022/06/14 03:51:07;;;;;;;5.93;1.67;;;;;;;;;;5042054;28;20489;-94
2022/06/14 03:53:52;;;;;;;6.50;1.65;;;;;;;;;;5032632;28;20139;-94
2022/06/14 03:56:38;;;;;;;6.32;1.98;;;;;;;;;;5025734;28;20490;-94
2022/06/14 03:59:20;;;;;;;7.72;1.60;;;;;;;;;;5057980;28;20037;-94
2022/06/14 04:02:01;;;;;;;11.85;2.15;;;;;;;;;;5042023;28;20059;-94
2022/06/14 04:04:58;;;;;;;9.25;1.70;;;;;;;;;;5026130;28;20049;-94
2022/06/14 04:07:49;;;;;;;6.78;1.70;;;;;;;;;;5058043;28;20048;-94
2022/06/14 04:10:59;;;;;;;5.97;1.45;;;;;;;;;;5044400;28;20040;-94
2022/06/14 04:13:49;;;;;;;6.35;1.52;;;;;;;;;;5041325;28;20044;-94
2022/06/14 04:16:40;;;;;;;9.35;1.50;;;;;;;;;;5034013;28;20140;-94
2022/06/14 04:19:40;;;;;;;4.25;1.42;;;;;;;;;;4997317;28;20145;-94
2022/06/14 04:22:23;;;;;;;5.95;1.45;;;;;;;;;;5003099;28;20080;-94
2022/06/14 04:25:01;;;;;;;8.07;1.55;;;;;;;;;;5021974;28;20044;-94
2022/06/14 04:28:05;;;;;;;8.07;1.63;;;;;;;;;;5018634;28;20044;-95
2022/06/14 04:30:43;;;;;;;10.02;2.55;;;;;;;;;;4992897;28;20409;-95
2022/06/14 04:33:24;;;;;;;6.80;1.88;;;;;;;;;;5005512;28;20104;-94
2022/06/14 04:35:56;;;;;;;10.07;1.48;;;;;;;;;;5001287;28;20052;-96
2022/06/14 04:38:49;;;;;;;4.88;1.35;;;;;;;;;;4992711;28;20072;-95
2022/06/14 04:41:27;;;;;;;8.15;1.50;;;;;;;;;;5034826;28;20044;-94
2022/06/14 04:44:06;;;;;;;6.80;1.60;;;;;;;;;;5020053;28;20080;-94
2022/06/14 04:46:42;;;;;;;7.93;1.65;;;;;;;;;;5021407;28;20060;-96
2022/06/14 04:49:29;;;;;;;7.40;1.75;;;;;;;;;;5007788;28;20041;-95
2022/06/14 04:52:04;;;;;;;10.48;1.80;;;;;;;;;;5013093;28;20049;-95
2022/06/14 04:54:57;;;;;;;9.18;2.20;;;;;;;;;;5021630;28;20083;-95
2022/06/14 04:57:35;;;;;;;7.70;1.98;;;;;;;;;;5037891;28;20481;-94
2022/06/14 05:00:09;;;;;;;5.90;1.70;;;;;;;;;;5024352;28;20053;-94
2022/06/14 05:02:42;;;;;;;7.75;1.42;;;;;;;;;;5025483;28;20055;-94
2022/06/14 05:05:27;;;;;;;4.30;1.35;;;;;;;;;;5042049;28;20099;-94
2022/06/14 05:08:04;;;;;;;8.15;1.55;;;;;;;;;;5000912;28;20053;-93
2022/06/14 05:10:46;;;;;;;10.40;2.08;;;;;;;;;;5005616;28;20037;-93
2022/06/14 05:13:36;;;;;;;6.35;1.90;;;;;;;;;;5018105;28;20135;-94
2022/06/14 05:16:59;;;;;;;8.65;1.42;;;;;;;;;;5059702;28;20049;-93
2022/06/14 05:20:10;;;;;;;8.57;1.65;;;;;;;;;;5057891;28;20036;-94
2022/06/14 05:22:54;;;;;;;6.93;1.70;;;;;;;;;;5040114;28;20079;-93
2022/06/14 05:25:22;;;;;;;5.97;1.27;;;;;;;;;;5072522;28;20058;-93
2022/06/14 05:28:04;;;;;;;3.15;1.27;;;;;;;;;;5041817;28;20546;-92
2022/06/14 05:30:55;;;;;;;7.43;1.92;;;;;;;;;;5051090;28;20060;-96
2022/06/14 05:33:45;;;;;;;8.38;1.52;;;;;;;;;;5037817;28;20080;-91
2022/06/14 05:36:24;;;;;;;8.18;1.70;;;;;;;;;;5062590;28;20044;-94
2022/06/14 05:39:08;;;;;;;11.13;2.20;;;;;;;;;;5060332;28;20090;-93
2022/06/14 05:41:50;;;;;;;12.82;2.10;;;;;;;;;;5040083;28;20049;-94
2022/06/14 05:44:27;;;;;;;9.05;2.03;;;;;;;;;;5058292;28;20497;-95
2022/06/14 05:46:58;;;;;;;6.65;1.63;;;;;;;;;;5059186;28;20152;-94
2022/06/14 05:49:34;;;;;;;7.40;2.05;;;;;;;;;;5025338;28;20058;-94
2022/06/14 05:52:48;;;;;;;8.63;2.10;;;;;;;;;;5040180;28;20120;-93
2022/06/14 05:59:36;;;;;;;10.30;1.92;;;;;;;;;;4994828;28;20050;-95
2022/06/14 06:02:06;;;;;;;9.85;1.63;;;;;;;;;;4996410;28;20621;-95
2022/06/14 06:05:07;;;;;;;7.40;1.65;;;;;;;;;;4962577;28;20077;-96
2022/06/14 06:07:41;;;;;;;11.10;1.95;;;;;;;;;;4982212;28;20550;-96
2022/06/14 06:10:36;;;;;;;5.88;1.52;;;;;;;;;;4950882;28;20046;-96
2022/06/14 06:13:18;;;;;;;6.70;1.17;;;;;;;;;;4982863;28;20053;-96
2022/06/14 06:15:59;;;;;;;9.40;1.50;;;;;;;;;;4976549;28;20554;-92
2022/06/14 06:18:47;;;;;;;10.07;2.53;;;;;;;;;;4959492;28;20062;-92
2022/06/14 06:21:34;;;;;;;7.18;1.50;;;;;;;;;;4959498;28;20628;-92
2022/06/14 06:24:14;;;;;;;7.95;1.60;;;;;;;;;;4977086;28;20065;-93
2022/06/14 06:26:59;;;;;;;8.50;2.03;;;;;;;;;;4998741;28;20086;-96
2022/06/14 06:29:48;;;;;;;9.63;1.80;;;;;;;;;;4995341;28;20056;-96
2022/06/14 06:32:18;;;;;;;9.43;1.73;;;;;;;;;;5061882;28;20048;-96
2022/06/14 06:35:11;;;;;;;5.60;1.52;;;;;;;;;;5041618;28;20045;-93
2022/06/14 06:37:42;;;;;;;7.28;1.40;;;;;;;;;;5035564;28;20053;-92
2022/06/14 06:40:19;;;;;;;10.50;2.05;;;;;;;;;;5053284;28;20047;-92
2022/06/14 06:42:59;;;;;;;7.05;1.40;;;;;;;;;;5040516;28;20443;-92
2022/06/14 06:45:52;;;;;;;8.80;1.75;;;;;;;;;;5059808;28;20068;-96
2022/06/14 06:48:24;;;;;;;5.57;1.58;;;;;;;;;;5044370;28;20054;-96
2022/06/14 06:51:00;;;;;;;12.20;2.08;;;;;;;;;;5044911;28;20056;-96
2022/06/14 06:53:40;;;;;;;3.95;1.27;;;;;;;;;;5029541;28;20048;-96
2022/06/14 06:56:15;;;;;;;10.00;2.10;;;;;;;;;;5028260;28;20060;-96
2022/06/14 06:58:52;;;;;;;5.70;1.50;;;;;;;;;;5044582;28;20144;-96
2022/06/14 07:01:33;;;;;;;8.85;1.75;;;;;;;;;;5044236;28;20136;-96
2022/06/14 07:07:27;;;;;;;6.40;1.40;;;;;;;;;;5040863;28;20503;-92
2022/06/14 07:10:00;;;;;;;7.20;1.40;;;;;;;;;;5047170;28;20459;-92
2022/06/14 07:12:45;;;;;;;12.88;3.45;;;;;;;;;;5056612;28;20080;-92
2022/06/14 07:15:48;;;;;;;6.30;1.70;;;;;;;;;;5044319;28;20603;-92
2022/06/14 07:18:29;;;;;;;8.07;1.70;;;;;;;;;;5052481;28;20048;-92
2022/06/14 07:21:08;;;;;;;15.40;1.80;;;;;;;;;;5040271;28;20565;-92
2022/06/14 07:23:44;;;;;;;6.95;1.75;;;;;;;;;;5039936;28;20123;-92
2022/06/14 07:26:20;;;;;;;11.85;1.73;;;;;;;;;;5056213;28;20041;-92
2022/06/14 07:29:08;;;;;;;11.15;1.75;;;;;;;;;;5039024;28;20071;-92
2022/06/14 07:31:51;;;;;;;10.57;1.60;;;;;;;;;;5039045;28;20144;-92
2022/06/14 07:34:19;;;;;;;7.03;1.83;;;;;;;;;;5020357;28;20163;-93
2022/06/14 07:37:38;;;;;;;8.00;1.50;;;;;;;;;;5042994;28;20147;-96
2022/06/14 07:40:36;;;;;;;6.88;1.70;;;;;;;;;;4987254;28;20068;-96
2022/06/14 07:43:23;;;;;;;8.43;1.42;;;;;;;;;;4999306;28;20134;-96
2022/06/14 07:46:03;;;;;;;9.02;1.70;;;;;;;;;;5015169;28;20683;-96
2022/06/14 07:49:00;;;;;;;8.82;1.60;;;;;;;;;;4982960;28;20490;-96
2022/06/14 07:51:44;;;;;;;10.55;1.50;;;;;;;;;;4982580;28;20146;-96
2022/06/14 07:54:16;;;;;;;5.47;1.20;;;;;;;;;;4998682;28;20057;-96
2022/06/14 07:57:11;;;;;;;7.80;1.40;;;;;;;;;;4979822;28;20137;-93
2022/06/14 07:59:54;;;;;;;5.40;1.40;;;;;;;;;;4989097;28;20093;-93
2022/06/14 08:02:47;;;;;;;6.35;1.45;;;;;;;;;;4998755;28;20058;-93
2022/06/14 08:05:28;;;;;;;5.05;1.67;;;;;;;;;;4998603;28;20054;-96
2022/06/14 08:08:00;;;;;;;6.90;1.45;;;;;;;;;;4979029;28;20061;-95
2022/06/14 08:10:32;;;;;;;11.15;1.83;;;;;;;;;;4946784;28;20050;-96
2022/06/14 08:13:06;;;;;;;5.47;1.50;;;;;;;;;;4979775;28;20750;-96
2022/06/14 08:16:02;;;;;;;4.82;1.13;;;;;;;;;;5007661;28;20091;-96
2022/06/14 08:18:44;;;;;;;7.43;1.50;;;;;;;;;;5043327;28;20526;-96
2022/06/14 08:21:24;;;;;;;7.22;1.60;;;;;;;;;;5043121;28;20053;-96
2022/06/14 08:24:05;;;;;;;7.80;1.60;;;;;;;;;;5039989;28;20059;-96
2022/06/14 08:26:46;;;;;;;5.15;1.55;;;;;;;;;;4942666;28;20102;-85
2022/06/14 08:29:55;;;;;;;6.72;1.60;;;;;;;;;;4957984;28;20055;-85
2022/06/14 08:32:43;;;;;;;4.72;1.48;;;;;;;;;;4945548;28;20051;-85
2022/06/14 08:35:17;;;;;;;5.05;1.20;;;;;;;;;;4934138;28;20062;-84
2022/06/14 08:38:07;;;;;;;5.55;1.42;;;;;;;;;;4968463;28;20138;-84
2022/06/14 08:40:56;;;;;;;6.20;1.40;;;;;;;;;;4964767;28;20043;-84
2022/06/14 08:43:32;;;;;;;8.60;1.85;;;;;;;;;;4966535;28;20053;-84
2022/06/14 08:46:17;;;;;;;8.30;1.55;;;;;;;;;;4967365;28;20138;-84
2022/06/14 08:49:13;;;;;;;9.32;1.85;;;;;;;;;;4948674;28;20051;-84
2022/06/14 08:52:25;;;;;;;8.25;1.27;;;;;;;;;;4952096;28;20887;-84
2022/06/14 08:55:23;;;;;;;11.02;2.25;;;;;;;;;;4947752;29;20064;-84
2022/06/14 08:57:52;;;;;;;7.07;1.42;;;;;;;;;;4948375;29;20059;-84
2022/06/14 09:00:39;;;;;;;10.98;2.47;;;;;;;;;;4930573;29;20424;-84
2022/06/14 09:03:22;;;;;;;6.50;1.30;;;;;;;;;;4947357;28;20061;-84
2022/06/14 09:06:28;;;;;;;9.98;2.03;;;;;;;;;;4921371;28;20082;-84
2022/06/14 09:09:53;;;;;;;4.07;1.58;;;;;;;;;;4944734;28;20596;-84
2022/06/14 09:12:51;;;;;;;6.13;1.17;;;;;;;;;;4867630;29;20504;-84
2022/06/14 09:15:59;;;;;;;6.72;1.13;;;;;;;;;;4852314;29;20056;-84
2022/06/14 09:18:53;;;;;;;7.07;1.75;;;;;;;;;;4868531;29;20067;-84
2022/06/14 09:21:45;;;;;;;7.88;1.50;;;;;;;;;;4797544;29;20478;-84
2022/06/14 09:24:19;;;;;;;7.00;1.45;;;;;;;;;;4798109;29;20063;-84
2022/06/14 09:27:42;;;;;;;9.27;1.48;;;;;;;;;;4860134;29;20094;-84
2022/06/14 09:30:17;;;;;;;9.70;2.17;;;;;;;;;;4789031;29;20058;-84
2022/06/14 09:33:09;;;;;;;4.85;1.15;;;;;;;;;;4803196;29;20055;-85
2022/06/14 09:35:52;;;;;;;5.78;1.35;;;;;;;;;;4804931;29;20065;-84
2022/06/14 09:38:25;;;;;;;4.18;1.08;;;;;;;;;;4796865;29;20123;-84
2022/06/14 09:41:13;;;;;;;3.75;1.52;;;;;;;;;;4782799;29;20462;-84
2022/06/14 09:43:59;;;;;;;4.95;1.30;;;;;;;;;;4837914;29;20058;-84
2022/06/14 09:46:42;;;;;;;5.95;1.30;;;;;;;;;;4872513;29;20060;-84
2022/06/14 09:49:28;;;;;;;7.35;1.40;;;;;;;;;;4870311;29;20053;-85
2022/06/14 09:52:09;;;;;;;7.38;1.00;;;;;;;;;;4874675;29;20049;-85
2022/06/14 09:55:05;;;;;;;6.00;1.45;;;;;;;;;;4847530;29;20061;-84
2022/06/14 09:57:37;;;;;;;;;;;;;;;;;;4859107;29;20143;-84
2022/06/14 10:00:36;;;;;;;4.50;1.38;;;;;;;;;;4876312;29;19932;-84
2022/06/14 10:03:09;;;;;;;8.48;1.50;;;;;;;;;;4881220;28;20419;-85
2022/06/14 10:05:54;;;;;;;6.38;1.00;;;;;;;;;;4964665;28;20527;-84
2022/06/14 10:08:29;;;;;;;7.65;1.30;;;;;;;;;;4962090;28;20464;-84
2022/06/14 10:11:06;;;;;;;4.95;1.17;;;;;;;;;;4948455;28;20046;-84
2022/06/14 10:13:58;;;;;;;6.18;1.10;;;;;;;;;;4962333;28;20101;-85
2022/06/14 10:16:34;;;;;;;4.13;1.38;;;;;;;;;;4943918;28;20520;-84
2022/06/14 10:19:04;;;;;;;5.50;1.25;;;;;;;;;;4966492;28;20086;-84
2022/06/14 10:21:49;;;;;;;5.28;1.40;;;;;;;;;;4966147;28;20141;-84
2022/06/14 10:24:40;;;;;;;6.40;1.92;;;;;;;;;;4966639;28;20061;-84
2022/06/14 10:31:17;;;;;;;7.40;1.40;;;;;;;;;;4971182;28;20054;-88
2022/06/14 10:35:04;;;;;;;6.47;1.25;;;;;;;;;;4982856;28;20066;-87
2022/06/14 10:38:31;;;;;;;3.58;1.02;;;;;;;;;;4982798;28;20058;-87
2022/06/14 10:41:23;;;;;;;7.25;1.08;;;;;;;;;;4967326;28;20702;-84
2022/06/14 10:44:24;;;;;;;5.93;1.27;;;;;;;;;;4983861;28;20086;-85
2022/06/14 10:47:11;;;;;;;2.75;1.00;;;;;;;;;;4983248;28;20108;-85
2022/06/14 10:50:01;;;;;;;4.57;1.00;;;;;;;;;;4982253;28;20113;-85
2022/06/14 10:53:04;;;;;;;10.73;1.40;;;;;;;;;;4980766;28;20058;-85
2022/06/14 10:55:31;;;;;;;5.80;1.13;;;;;;;;;;4982076;28;20054;-85
2022/06/14 10:58:37;;;;;;;3.78;1.55;;;;;;;;;;4980283;28;20570;-84
2022/06/14 11:01:08;;;;;;;3.58;1.10;;;;;;;;;;4981357;28;20046;-85
2022/06/14 11:04:05;;;;;;;7.90;1.52;;;;;;;;;;4981070;28;20515;-85
2022/06/14 11:06:36;;;;;;;4.50;0.90;;;;;;;;;;4982626;28;20057;-85
2022/06/14 11:09:30;;;;;;;5.93;1.10;;;;;;;;;;4982174;28;20073;-85
2022/06/14 11:12:23;;;;;;;5.68;1.15;;;;;;;;;;4980337;28;20058;-84
2022/06/14 11:15:12;;;;;;;3.28;1.02;;;;;;;;;;4981367;28;20065;-85
2022/06/14 11:18:37;;;;;;;6.07;1.27;;;;;;;;;;4981643;28;20504;-84
2022/06/14 11:21:44;;;;;;;7.20;1.10;;;;;;;;;;4981001;28;20038;-85
2022/06/14 11:24:25;;;;;;;7.32;1.17;;;;;;;;;;4978760;28;20077;-85
2022/06/14 11:27:04;;;;;;;3.25;1.20;;;;;;;;;;4978434;28;20101;-85
2022/06/14 11:30:09;;;;;;;6.07;1.30;;;;;;;;;;4981456;28;20076;-85
2022/06/14 11:33:03;;;;;;;2.35;0.93;;;;;;;;;;4950195;28;20053;-85
2022/06/14 11:36:02;;;;;;;5.18;1.27;;;;;;;;;;4938355;28;20055;-85
2022/06/14 11:39:17;;;;;;;4.47;0.90;;;;;;;;;;4952841;28;20051;-85
2022/06/14 11:41:48;;;;;;;3.50;1.23;;;;;;;;;;4938189;28;22228;-85
2022/06/14 11:44:47;;;;;;;2.25;0.75;;;;;;;;;;4952237;28;20055;-85
2022/06/14 11:47:38;;;;;;;4.22;0.82;;;;;;;;;;4950325;28;20082;-87
2022/06/14 11:50:19;;;;;;;6.10;1.10;;;;;;;;;;4903246;29;20151;-84
2022/06/14 11:52:56;;;;;;;3.47;1.10;;;;;;;;;;4908580;29;20139;-85
2022/06/14 11:55:49;;;;;;;5.45;1.02;;;;;;;;;;4893011;29;20051;-85
2022/06/14 11:58:50;;;;;;;4.47;1.08;;;;;;;;;;4892172;29;20052;-85
2022/06/14 12:01:35;;;;;;;2.53;1.08;;;;;;;;;;4894421;29;20496;-84
2022/06/14 12:04:32;;;;;;;3.88;1.00;;;;;;;;;;4893901;29;20056;-85
2022/06/14 12:07:22;;;;;;;6.60;1.45;;;;;;;;;;4893981;29;20061;-84
2022/06/14 12:10:20;;;;;;;;;;;;;;;;;;4916305;29;20066;-84
2022/06/14 12:13:31;;;;;;;3.45;1.00;;;;;;;;;;4921879;29;19938;-84
2022/06/14 12:16:09;;;;;;;4.30;1.20;;;;;;;;;;4906874;29;20055;-84
2022/06/14 12:18:41;;;;;;;2.75;0.90;;;;;;;;;;4924609;29;20059;-85
2022/06/14 12:21:38;;;;;;;7.65;1.25;;;;;;;;;;4920665;29;20047;-85
2022/06/14 12:24:09;;;;;;;3.97;0.80;;;;;;;;;;4924524;29;20059;-85
2022/06/14 12:26:58;;;;;;;4.32;0.90;;;;;;;;;;4942395;28;20057;-84
2022/06/14 12:29:31;;;;;;;3.20;0.80;;;;;;;;;;4979928;28;20149;-85
2022/06/14 12:32:09;;;;;;;3.67;0.80;;;;;;;;;;4984709;28;20054;-84
2022/06/14 12:35:12;;;;;;;4.63;1.05;;;;;;;;;;4985273;28;20633;-85
2022/06/14 12:38:07;;;;;;;4.70;1.20;;;;;;;;;;4985278;28;20603;-85
2022/06/14 12:40:50;;;;;;;4.95;1.13;;;;;;;;;;4986613;28;21425;-85
2022/06/14 12:43:26;;;;;;;3.33;0.85;;;;;;;;;;4983206;28;20050;-84
2022/06/14 12:46:09;;;;;;;4.25;0.85;;;;;;;;;;4967057;28;20518;-84
2022/06/14 12:49:05;;;;;;;5.40;0.98;;;;;;;;;;4985466;28;20506;-84
2022/06/14 12:51:36;;;;;;;;;;;;;;;;;;4907177;29;20162;-84
2022/06/14 12:54:25;;;;;;;2.53;0.80;;;;;;;;;;4906658;29;20066;-84
2022/06/14 12:57:29;;;;;;;3.72;1.05;;;;;;;;;;4903857;29;20053;-84
2022/06/14 13:00:02;;;;;;;2.67;0.70;;;;;;;;;;4905442;29;20067;-84
2022/06/14 13:02:45;;;;;;;4.70;1.02;;;;;;;;;;4906121;29;20171;-84
2022/06/14 13:05:43;;;;;;;3.78;1.15;;;;;;;;;;4905699;29;20052;-84
2022/06/14 13:08:30;;;;;;;6.18;1.20;;;;;;;;;;4901957;29;20056;-85
2022/06/14 13:11:28;;;;;;;4.05;0.77;;;;;;;;;;4907339;29;20126;-85
2022/06/14 13:14:09;;;;;;;2.78;1.10;;;;;;;;;;4909828;29;20068;-84
2022/06/14 13:17:00;;;;;;;5.78;1.20;;;;;;;;;;4892756;29;20470;-85
2022/06/14 13:19:53;;;;;;;4.35;1.00;;;;;;;;;;4916350;29;20063;-85
2022/06/14 13:22:43;;;;;;;2.80;1.13;;;;;;;;;;4914475;29;20052;-84
2022/06/14 13:26:00;;;;;;;4.30;1.08;;;;;;;;;;4883080;29;21024;-85
2022/06/14 13:28:45;;;;;;;4.07;0.90;;;;;;;;;;4933678;28;20128;-81
2022/06/14 13:31:26;;;;;;;3.58;1.10;;;;;;;;;;4961538;28;20055;-82
2022/06/14 13:34:11;;;;;;;2.10;0.60;;;;;;;;;;4932497;29;20472;-87
2022/06/14 13:37:49;;;;;;;3.33;0.95;;;;;;;;;;4942620;28;20082;-84
2022/06/14 13:40:34;;;;;;;3.53;1.15;;;;;;;;;;4888146;29;20825;-85
2022/06/14 13:43:04;;;;;;;3.25;0.90;;;;;;;;;;4905172;29;20060;-85
2022/06/14 13:45:43;;;;;;;4.53;1.08;;;;;;;;;;4905118;29;20063;-85
2022/06/14 13:48:18;;;;;;;2.35;0.90;;;;;;;;;;4906768;29;20060;-85
2022/06/14 13:50:57;;;;;;;1.65;0.82;;;;;;;;;;4902681;29;20626;-85
2022/06/14 13:53:37;;;;;;;4.95;1.10;;;;;;;;;;4905187;29;20052;-84
2022/06/14 13:56:19;;;;;;;4.20;0.82;;;;;;;;;;4912244;29;20062;-85
2022/06/14 13:58:54;;;;;;;4.85;0.80;;;;;;;;;;4908408;29;20055;-85
2022/06/14 14:01:26;;;;;;;3.63;0.82;;;;;;;;;;4923632;29;20142;-85
2022/06/14 14:04:15;;;;;;;3.97;1.15;;;;;;;;;;4924183;29;20054;-84
2022/06/14 14:07:12;;;;;;;4.78;1.10;;;;;;;;;;4925259;29;20914;-84
2022/06/14 14:10:04;;;;;;;3.25;0.93;;;;;;;;;;4923761;29;20156;-85
2022/06/14 14:12:48;;;;;;;4.63;0.93;;;;;;;;;;4923569;29;20058;-84
2022/06/14 14:15:33;;;;;;;2.42;0.88;;;;;;;;;;4907564;29;20151;-84
2022/06/14 14:18:18;;;;;;;3.63;1.10;;;;;;;;;;4974548;28;20141;-85
2022/06/14 14:21:16;;;;;;;5.10;1.10;;;;;;;;;;4982148;28;20073;-85
2022/06/14 14:24:56;;;;;;;2.95;0.82;;;;;;;;;;4984800;28;20128;-85
2022/06/14 14:27:34;;;;;;;4.75;0.95;;;;;;;;;;4984332;28;20058;-85
2022/06/14 14:31:10;;;;;;;2.90;0.82;;;;;;;;;;4982984;28;20456;-84
2022/06/14 14:33:52;;;;;;;3.58;0.80;;;;;;;;;;4983187;28;20054;-85
2022/06/14 14:36:57;;;;;;;5.72;1.90;;;;;;;;;;4983504;28;20046;-85
2022/06/14 14:39:31;;;;;;;3.50;1.25;;;;;;;;;;4983575;28;20052;-85
2022/06/14 14:42:31;;;;;;;3.28;1.17;;;;;;;;;;4981188;28;20185;-85
2022/06/14 14:45:24;;;;;;;2.22;0.85;;;;;;;;;;4980409;28;20058;-85
2022/06/14 14:48:01;;;;;;;3.97;1.00;;;;;;;;;;4985887;28;20054;-85
2022/06/14 14:51:02;;;;;;;3.80;0.82;;;;;;;;;;4983078;28;20113;-85
2022/06/14 14:53:48;;;;;;;2.25;0.82;;;;;;;;;;4982253;28;20050;-85
2022/06/14 14:56:39;;;;;;;2.60;1.02;;;;;;;;;;4971637;28;20047;-85
2022/06/14 14:59:37;;;;;;;3.20;0.93;;;;;;;;;;4968012;28;20061;-84
2022/06/14 15:05:37;;;;;;;3.10;0.95;;;;;;;;;;4982465;28;20062;-85
2022/06/14 15:08:10;;;;;;;3.20;1.08;;;;;;;;;;4960918;28;20050;-84
2022/06/14 15:10:57;;;;;;;3.58;1.00;;;;;;;;;;4984312;28;20137;-85
2022/06/14 15:13:34;;;;;;;4.10;1.27;;;;;;;;;;4965630;28;20042;-84
2022/06/14 15:16:04;;;;;;;4.60;1.48;;;;;;;;;;4983385;28;20112;-85
2022/06/14 15:21:33;;;;;;;4.22;0.90;;;;;;;;;;4982627;28;20056;-84
2022/06/14 15:24:33;;;;;;;3.28;0.90;;;;;;;;;;4967409;28;20049;-84
2022/06/14 15:27:40;;;;;;;3.60;0.90;;;;;;;;;;4985197;28;20112;-85
2022/06/14 15:30:11;;;;;;;3.83;1.00;;;;;;;;;;4982092;28;20089;-85
2022/06/14 15:32:43;;;;;;;5.93;1.10;;;;;;;;;;4964410;28;20070;-85
2022/06/14 15:35:24;;;;;;;3.35;1.05;;;;;;;;;;4983568;28;20065;-86
2022/06/14 15:38:43;;;;;;;2.33;0.75;;;;;;;;;;4984729;28;20499;-85
2022/06/14 15:41:27;;;;;;;2.08;0.80;;;;;;;;;;4987893;28;20050;-84
2022/06/14 15:49:59;;;;;;;1.88;0.50;;;;;;;;;;4969020;28;20066;-85
2022/06/14 16:10:55;;;;;;;3.20;0.80;;;;;;;;;;4779388;29;20066;-85
2022/06/14 16:13:42;;;;;;;3.08;0.90;;;;;;;;;;4798937;29;20447;-85
2022/06/14 16:16:44;;;;;;;1.92;0.80;;;;;;;;;;4776496;30;20172;-85
2022/06/14 16:19:29;;;;;;;1.80;0.85;;;;;;;;;;4779097;30;20067;-85
2022/06/14 16:22:18;;;;;;;2.30;0.77;;;;;;;;;;4789756;29;20059;-86
2022/06/14 16:24:55;;;;;;;3.28;0.90;;;;;;;;;;4774494;30;20063;-85
2022/06/14 16:27:51;;;;;;;2.53;0.98;;;;;;;;;;4793748;29;21041;-85
2022/06/14 16:30:32;;;;;;;;;;;;;;;;;;4831162;29;20050;-85
2022/06/14 16:33:28;;;;;;;1.98;0.85;;;;;;;;;;4828369;29;19924;-85
2022/06/14 16:36:36;;;;;;;1.90;0.80;;;;;;;;;;4830019;29;20056;-85
2022/06/14 16:39:15;;;;;;;5.07;1.20;;;;;;;;;;4830660;29;20569;-85
2022/06/14 16:42:23;;;;;;;3.60;1.20;;;;;;;;;;4961335;28;20047;-86
2022/06/14 16:45:10;;;;;;;3.55;1.00;;;;;;;;;;4969834;28;20074;-85
2022/06/14 16:47:51;;;;;;;2.35;0.70;;;;;;;;;;4956578;28;20074;-84
2022/06/14 16:50:55;;;;;;;2.53;0.80;;;;;;;;;;4970368;28;20055;-86
2022/06/14 16:53:46;;;;;;;3.47;0.98;;;;;;;;;;4972955;28;20085;-85
2022/06/14 16:56:31;;;;;;;3.28;0.82;;;;;;;;;;4969466;28;20057;-84
2022/06/14 16:59:44;;;;;;;4.28;1.73;;;;;;;;;;4960517;28;20054;-84
2022/06/14 17:03:09;;;;;;;2.95;0.82;;;;;;;;;;4944974;28;20597;-84
2022/06/14 17:06:29;;;;;;;4.55;0.63;;;;;;;;;;4968492;28;20078;-85
2022/06/14 17:09:18;;;;;;;4.30;0.80;;;;;;;;;;4972453;28;20055;-85
2022/06/14 17:11:54;;;;;;;2.70;0.90;;;;;;;;;;4971890;28;20073;-85
2022/06/14 17:14:34;;;;;;;2.33;1.00;;;;;;;;;;4968961;28;20062;-84
2022/06/14 17:17:15;;;;;;;3.33;1.23;;;;;;;;;;4964723;28;20058;-84
2022/06/14 17:19:53;;;;;;;3.20;1.20;;;;;;;;;;4966910;28;20197;-84
2022/06/14 17:24:11;;;;;;;3.45;0.80;;;;;;;;;;4960424;28;20533;-86
2022/06/14 17:30:16;;;;;;;0.90;0.40;;;;;;;;;;4953109;28;20559;-82
2022/06/14 17:32:55;;;;;;;;;;;;;;;;;;4945940;28;20066;-82
2022/06/14 17:35:43;;;;;;;3.05;0.85;;;;;;;;;;4934988;28;19926;-82
2022/06/14 17:38:46;;;;;;;3.65;0.70;;;;;;;;;;4951477;28;20095;-82
2022/06/14 17:41:21;;;;;;;2.20;0.45;;;;;;;;;;4935001;28;20114;-82
2022/06/14 17:44:04;;;;;;;2.55;0.60;;;;;;;;;;4948696;28;20051;-82
2022/06/14 17:46:35;;;;;;;2.40;0.50;;;;;;;;;;4933775;29;20059;-82